createdAt,value
2023-01-09T00:01:29.948Z,24.77
2023-01-09T00:03:58.116Z,23.85
2023-01-09T00:06:26.365Z,24.67
2023-01-09T00:08:54.639Z,24.33
2023-01-09T00:11:23.052Z,24.30
2023-01-09T00:13:51.416Z,24.58
2023-01-09T00:16:21.476Z,25.23
2023-01-09T00:18:49.719Z,25.63
2023-01-09T00:21:17.984Z,24.83
2023-01-09T00:23:46.193Z,24.67
2023-01-09T00:26:17.108Z,23.33
2023-01-09T00:28:45.697Z,24.35
2023-01-09T00:31:14.238Z,24.13
2023-01-09T00:33:46.146Z,24.83
2023-01-09T00:36:14.576Z,24.30
2023-01-09T00:38:42.769Z,24.52
2023-01-09T00:41:15.122Z,24.52
2023-01-09T00:43:47.807Z,23.98
2023-01-09T00:46:17.419Z,23.92
2023-01-09T00:48:49.245Z,24.75
2023-01-09T00:51:20.137Z,24.20
2023-01-09T00:53:50.225Z,23.55
2023-01-09T00:56:20.620Z,23.23
2023-01-09T00:58:49.623Z,23.85
2023-01-09T01:01:17.882Z,23.92
2023-01-09T01:03:47.610Z,25.95
2023-01-09T01:06:33.359Z,24.58
2023-01-09T01:09:01.663Z,24.90
2023-01-09T01:11:29.794Z,23.52
2023-01-09T01:13:58.123Z,25.08
2023-01-09T01:16:26.335Z,25.80
2023-01-09T01:18:55.917Z,24.38
2023-01-09T01:21:24.087Z,24.73
2023-01-09T01:23:52.351Z,25.27
2023-01-09T01:26:20.464Z,22.83
2023-01-09T01:28:48.795Z,24.83
2023-01-09T01:31:18.385Z,24.40
2023-01-09T01:33:46.629Z,23.80
2023-01-09T01:36:17.629Z,25.67
2023-01-09T01:38:46.918Z,24.40
2023-01-09T01:41:29.538Z,23.70
2023-01-09T01:43:59.879Z,24.00
2023-01-09T01:46:28.383Z,23.48
2023-01-09T01:49:03.838Z,25.25
2023-01-09T01:51:37.086Z,24.10
2023-01-09T01:54:08.815Z,24.15
2023-01-09T01:56:41.176Z,24.83
2023-01-09T01:59:12.723Z,24.33
2023-01-09T02:01:44.967Z,24.40
2023-01-09T02:04:13.682Z,24.13
2023-01-09T02:06:43.686Z,23.90
2023-01-09T02:09:15.717Z,24.02
2023-01-09T02:11:46.601Z,22.83
2023-01-09T02:14:15.630Z,23.98
2023-01-09T02:16:53.001Z,24.02
2023-01-09T02:19:45.642Z,24.20
2023-01-09T02:22:26.719Z,22.77
2023-01-09T02:25:12.645Z,25.55
2023-01-09T02:28:17.793Z,24.35
2023-01-09T02:30:50.191Z,23.73
2023-01-09T02:33:47.458Z,24.75
2023-01-09T02:36:27.820Z,22.65
2023-01-09T02:39:10.348Z,23.67
2023-01-09T02:41:46.910Z,24.13
2023-01-09T02:44:21.432Z,23.30
2023-01-09T02:47:02.033Z,22.15
2023-01-09T02:49:30.513Z,21.48
2023-01-09T02:52:08.088Z,23.23
2023-01-09T02:54:50.884Z,23.65
2023-01-09T02:57:41.606Z,21.83
2023-01-09T03:00:17.641Z,22.63
2023-01-09T03:02:50.793Z,22.48
2023-01-09T03:05:25.905Z,21.10
2023-01-09T03:08:01.198Z,22.33
2023-01-09T03:10:36.708Z,22.60
2023-01-09T03:13:06.580Z,22.67
2023-01-09T03:15:37.610Z,21.20
2023-01-09T03:18:11.505Z,22.15
2023-01-09T03:20:40.802Z,21.27
2023-01-09T03:23:09.458Z,20.02
2023-01-09T03:25:37.721Z,21.00
2023-01-09T03:28:07.865Z,21.58
2023-01-09T03:30:37.677Z,20.65
2023-01-09T03:33:07.167Z,21.00
2023-01-09T03:35:35.490Z,19.98
2023-01-09T03:38:03.693Z,20.65
2023-01-09T03:40:31.832Z,21.60
2023-01-09T03:42:59.987Z,20.85
2023-01-09T03:45:28.240Z,21.30
2023-01-09T03:47:58.515Z,21.65
2023-01-09T03:50:28.160Z,21.98
2023-01-09T03:52:56.359Z,21.80
2023-01-09T03:55:24.686Z,21.73
2023-01-09T03:57:53.246Z,21.90
2023-01-09T04:00:22.336Z,22.38
2023-01-09T04:02:50.500Z,21.52
2023-01-09T04:05:18.883Z,21.77
2023-01-09T04:07:48.682Z,22.38
2023-01-09T04:10:17.559Z,22.38
2023-01-09T04:12:45.840Z,22.35
2023-01-09T04:15:14.083Z,22.60
2023-01-09T04:17:42.255Z,21.63
2023-01-09T04:20:11.763Z,23.37
2023-01-09T04:22:40.859Z,24.25
2023-01-09T04:25:11.075Z,22.92
2023-01-09T04:27:39.689Z,22.38
2023-01-09T04:30:09.317Z,23.08
2023-01-09T04:32:37.597Z,22.90
2023-01-09T04:35:06.541Z,20.65
2023-01-09T04:37:36.233Z,20.83
2023-01-09T04:40:06.834Z,21.90
2023-01-09T04:42:36.537Z,21.80
2023-01-09T04:45:05.111Z,21.63
2023-01-09T04:47:33.584Z,21.08
2023-01-09T04:50:02.078Z,22.37
2023-01-09T04:52:31.143Z,21.13
2023-01-09T04:54:59.355Z,21.00
2023-01-09T04:57:27.594Z,20.92
2023-01-09T04:59:57.099Z,20.83
2023-01-09T05:02:25.417Z,20.25
2023-01-09T05:04:53.631Z,21.00
2023-01-09T05:07:21.789Z,20.77
2023-01-09T05:09:49.927Z,20.80
2023-01-09T05:12:18.206Z,20.17
2023-01-09T05:14:46.425Z,20.48
2023-01-09T05:17:16.327Z,21.10
2023-01-09T05:19:45.906Z,20.27
2023-01-09T05:22:14.398Z,19.98
2023-01-09T05:24:42.641Z,20.15
2023-01-09T05:27:10.896Z,19.50
2023-01-09T05:29:39.036Z,20.95
2023-01-09T05:32:07.324Z,19.92
2023-01-09T05:34:36.885Z,19.50
2023-01-09T05:37:05.078Z,20.27
2023-01-09T05:39:33.246Z,19.30
2023-01-09T05:42:01.523Z,20.33
2023-01-09T05:44:29.698Z,19.75
2023-01-09T05:46:57.865Z,20.48
2023-01-09T05:49:26.132Z,20.15
2023-01-09T05:51:55.742Z,19.23
2023-01-09T05:54:24.065Z,20.45
2023-01-09T05:56:52.437Z,19.00
2023-01-09T05:59:20.873Z,19.05
2023-01-09T06:01:49.190Z,18.40
2023-01-09T06:04:17.946Z,19.25
2023-01-09T06:06:46.165Z,19.88
2023-01-09T06:09:15.713Z,18.77
2023-01-09T06:11:44.003Z,19.48
2023-01-09T06:14:12.124Z,18.03
2023-01-09T06:16:40.441Z,18.80
2023-01-09T06:19:08.952Z,18.38
2023-01-09T06:21:37.232Z,18.73
2023-01-09T06:24:05.898Z,18.52
2023-01-09T06:26:35.613Z,18.70
2023-01-09T06:29:03.797Z,19.08
2023-01-09T06:31:32.177Z,18.42
2023-01-09T06:34:00.527Z,19.17
2023-01-09T06:36:28.796Z,18.77
2023-01-09T06:38:56.961Z,18.42
2023-01-09T06:41:25.278Z,18.13
2023-01-09T06:43:54.818Z,18.25
2023-01-09T06:46:23.089Z,18.30
2023-01-09T06:48:51.329Z,18.13
2023-01-09T06:51:19.555Z,18.30
2023-01-09T06:53:47.727Z,18.42
2023-01-09T06:56:15.996Z,18.50
2023-01-09T06:58:44.164Z,17.98
2023-01-09T07:01:13.913Z,17.63
2023-01-09T07:03:42.485Z,17.90
2023-01-09T07:06:10.743Z,17.27
2023-01-09T07:08:38.871Z,17.90
2023-01-09T07:11:07.288Z,17.23
2023-01-09T07:13:35.469Z,18.08
2023-01-09T07:16:05.610Z,17.70
2023-01-09T07:18:35.237Z,17.80
2023-01-09T07:21:03.553Z,17.83
2023-01-09T07:23:31.777Z,17.95
2023-01-09T07:26:01.349Z,18.23
2023-01-09T07:28:29.619Z,18.15
2023-01-09T07:31:01.767Z,18.40
2023-01-09T07:33:30.051Z,18.30
2023-01-09T07:35:59.615Z,18.02
2023-01-09T07:38:28.081Z,17.73
2023-01-09T07:40:56.398Z,17.35
2023-01-09T07:43:24.700Z,16.58
2023-01-09T07:45:52.837Z,18.25
2023-01-09T07:48:21.120Z,18.00
2023-01-09T07:50:49.268Z,17.95
2023-01-09T07:53:18.802Z,17.05
2023-01-09T07:55:47.143Z,16.35
2023-01-09T07:58:15.474Z,16.85
2023-01-09T08:00:43.665Z,16.83
2023-01-09T08:03:11.981Z,17.70
2023-01-09T08:05:40.210Z,17.23
2023-01-09T08:08:08.635Z,17.13
2023-01-09T08:10:38.167Z,17.25
2023-01-09T08:13:06.573Z,17.08
2023-01-09T08:15:34.825Z,16.88
2023-01-09T08:18:03.162Z,16.00
2023-01-09T08:20:31.286Z,17.50
2023-01-09T08:22:59.542Z,18.02
2023-01-09T08:25:27.879Z,16.77
2023-01-09T08:27:57.515Z,17.25
2023-01-09T08:30:25.752Z,16.88
2023-01-09T08:32:55.563Z,16.27
2023-01-09T08:35:23.749Z,15.65
2023-01-09T08:37:52.041Z,17.20
2023-01-09T08:40:20.824Z,16.25
2023-01-09T08:43:06.634Z,16.65
2023-01-09T08:45:53.648Z,16.27
2023-01-09T08:48:21.948Z,16.65
2023-01-09T08:50:50.823Z,16.92
2023-01-09T08:53:19.172Z,15.77
2023-01-09T08:55:47.599Z,16.30
2023-01-09T08:58:15.890Z,16.85
2023-01-09T09:00:45.470Z,16.35
2023-01-09T09:03:13.723Z,16.77
2023-01-09T09:05:41.889Z,16.65
2023-01-09T09:08:10.211Z,16.40
2023-01-09T09:10:38.411Z,17.42
2023-01-09T09:13:06.916Z,15.77
2023-01-09T09:15:35.269Z,15.82
2023-01-09T09:18:07.093Z,16.45
2023-01-09T09:20:37.815Z,16.92
2023-01-09T09:23:08.180Z,15.98
2023-01-09T09:25:38.503Z,15.77
2023-01-09T09:28:07.239Z,15.90
2023-01-09T09:30:35.672Z,16.52
2023-01-09T09:33:06.065Z,16.33
2023-01-09T09:35:34.844Z,16.55
2023-01-09T09:38:05.805Z,16.85
2023-01-09T09:40:48.189Z,16.42
2023-01-09T09:44:13.624Z,16.20
2023-01-09T09:46:47.582Z,17.27
2023-01-09T09:49:23.137Z,16.25
2023-01-09T09:52:01.471Z,16.92
2023-01-09T09:54:35.744Z,15.45
2023-01-09T09:57:05.755Z,16.25
2023-01-09T09:59:36.888Z,16.80
2023-01-09T10:02:21.395Z,16.80
2023-01-09T10:04:57.694Z,15.00
2023-01-09T10:07:30.928Z,16.23
2023-01-09T10:10:05.153Z,15.98
2023-01-09T10:12:38.990Z,16.02
2023-01-09T10:15:17.605Z,16.23
2023-01-09T10:17:58.237Z,16.75
2023-01-09T10:20:43.488Z,16.13
2023-01-09T10:23:30.485Z,16.27
2023-01-09T10:26:02.933Z,16.85
2023-01-09T10:28:54.090Z,15.27
2023-01-09T10:31:31.308Z,16.90
2023-01-09T10:34:08.769Z,16.73
2023-01-09T10:37:00.316Z,17.13
2023-01-09T10:39:35.711Z,16.17
2023-01-09T10:42:11.878Z,17.08
2023-01-09T10:44:50.501Z,17.33
2023-01-09T10:47:23.051Z,16.50
2023-01-09T10:49:52.369Z,16.92
2023-01-09T10:52:29.947Z,16.80
2023-01-09T10:55:15.299Z,17.77
2023-01-09T10:57:45.295Z,18.17
2023-01-09T11:00:21.603Z,17.13
2023-01-09T11:02:52.143Z,18.00
2023-01-09T11:05:24.243Z,17.45
2023-01-09T11:07:57.670Z,18.33
2023-01-09T11:10:47.178Z,18.77
2023-01-09T11:13:20.377Z,18.17
2023-01-09T11:16:01.517Z,18.83
2023-01-09T11:18:29.993Z,18.52
2023-01-09T11:21:13.174Z,18.63
2023-01-09T11:23:42.819Z,19.05
2023-01-09T11:26:24.741Z,19.00
2023-01-09T11:29:11.555Z,19.45
2023-01-09T11:31:41.104Z,19.08
2023-01-09T11:34:17.764Z,21.05
2023-01-09T11:36:46.911Z,19.30
2023-01-09T11:39:24.838Z,17.98
2023-01-09T11:41:56.044Z,19.13
2023-01-09T11:44:25.452Z,18.80
2023-01-09T11:46:53.680Z,18.83
2023-01-09T11:49:24.281Z,19.10
2023-01-09T11:52:17.214Z,19.52
2023-01-09T11:54:51.376Z,19.92
2023-01-09T11:57:20.348Z,18.10
2023-01-09T11:59:48.539Z,18.65
2023-01-09T12:02:45.620Z,19.35
2023-01-09T12:05:23.933Z,19.45
2023-01-09T12:08:25.436Z,19.38
2023-01-09T12:11:20.409Z,19.58
2023-01-09T12:14:14.092Z,19.08
2023-01-09T12:16:55.289Z,19.42
2023-01-09T12:19:43.936Z,19.40
2023-01-09T12:22:22.459Z,19.77
2023-01-09T12:25:07.714Z,19.40
2023-01-09T12:27:53.492Z,20.50
2023-01-09T12:30:34.918Z,18.88
2023-01-09T12:33:16.508Z,19.35
2023-01-09T12:35:51.206Z,20.23
2023-01-09T12:38:31.036Z,18.55
2023-01-09T12:41:13.901Z,20.13
2023-01-09T12:43:52.934Z,19.55
2023-01-09T12:46:22.454Z,19.33
2023-01-09T12:49:17.262Z,19.90
2023-01-09T12:51:51.420Z,19.55
2023-01-09T12:54:25.400Z,20.02
2023-01-09T12:56:56.802Z,19.70
2023-01-09T12:59:32.694Z,19.40
2023-01-09T13:02:11.181Z,19.85
2023-01-09T13:04:45.729Z,19.75
2023-01-09T13:07:19.380Z,20.80
2023-01-09T13:09:53.072Z,20.20
2023-01-09T13:12:24.381Z,19.48
2023-01-09T13:14:58.265Z,20.40
2023-01-09T13:17:31.126Z,20.98
2023-01-09T13:19:59.553Z,20.02
2023-01-09T13:22:30.331Z,20.23
2023-01-09T13:25:28.220Z,19.83
2023-01-09T13:27:59.896Z,19.88
2023-01-09T13:30:52.787Z,20.70
2023-01-09T13:33:24.793Z,20.67
2023-01-09T13:35:55.039Z,20.38
2023-01-09T13:38:25.583Z,18.98
2023-01-09T13:41:25.990Z,19.65
2023-01-09T13:43:56.979Z,19.77
2023-01-09T13:46:36.825Z,20.15
2023-01-09T13:49:05.578Z,19.67
2023-01-09T13:51:56.499Z,19.45
2023-01-09T13:55:02.389Z,19.63
2023-01-09T13:57:33.166Z,19.55
2023-01-09T14:00:40.113Z,19.77
2023-01-09T14:03:19.460Z,19.77
2023-01-09T14:06:24.377Z,20.25
2023-01-09T14:09:20.315Z,18.75
2023-01-09T14:11:49.596Z,19.95
2023-01-09T14:14:28.938Z,19.35
2023-01-09T14:16:59.224Z,19.92
2023-01-09T14:19:37.773Z,21.02
2023-01-09T14:22:08.208Z,20.15
2023-01-09T14:24:43.970Z,19.92
2023-01-09T14:27:45.268Z,19.05
2023-01-09T14:30:33.899Z,19.90
2023-01-09T14:33:04.335Z,19.60
2023-01-09T14:35:52.088Z,19.38
2023-01-09T14:38:28.724Z,19.65
2023-01-09T14:41:02.243Z,18.23
2023-01-09T14:43:44.052Z,20.10
2023-01-09T14:46:16.141Z,19.88
2023-01-09T14:49:04.316Z,19.10
2023-01-09T14:51:38.305Z,18.77
2023-01-09T14:54:20.372Z,20.40
2023-01-09T14:56:48.909Z,20.10
2023-01-09T14:59:18.014Z,19.17
2023-01-09T15:01:49.500Z,19.33
2023-01-09T15:04:34.825Z,19.25
2023-01-09T15:07:05.702Z,18.42
2023-01-09T15:09:40.016Z,18.58
2023-01-09T15:12:11.721Z,18.48
2023-01-09T15:14:42.492Z,19.52
2023-01-09T15:17:20.959Z,19.67
2023-01-09T15:19:50.208Z,18.73
2023-01-09T15:22:28.766Z,18.17
2023-01-09T15:24:57.795Z,18.25
2023-01-09T15:27:27.123Z,18.55
2023-01-09T15:29:55.411Z,18.55
2023-01-09T15:32:27.033Z,19.33
2023-01-09T15:34:55.945Z,20.05
2023-01-09T15:37:30.120Z,19.27
2023-01-09T15:40:00.966Z,18.95
2023-01-09T15:42:51.068Z,19.17
2023-01-09T15:45:25.606Z,19.00
2023-01-09T15:47:54.673Z,19.48
2023-01-09T15:50:27.953Z,19.65
2023-01-09T15:52:58.481Z,18.77
2023-01-09T15:55:35.661Z,19.10
2023-01-09T15:58:04.787Z,18.75
2023-01-09T16:00:44.005Z,19.75
2023-01-09T16:03:20.495Z,20.25
2023-01-09T16:05:52.436Z,20.13
2023-01-09T16:08:29.426Z,19.02
2023-01-09T16:11:02.609Z,19.92
2023-01-09T16:13:34.007Z,20.02
2023-01-09T16:16:03.955Z,20.70
2023-01-09T16:18:35.010Z,19.38
2023-01-09T16:21:21.297Z,21.23
2023-01-09T16:23:57.296Z,19.65
2023-01-09T16:26:28.483Z,19.92
2023-01-09T16:28:57.109Z,20.45
2023-01-09T16:31:29.091Z,20.50
2023-01-09T16:34:00.687Z,20.17
2023-01-09T16:36:29.939Z,20.23
2023-01-09T16:39:00.881Z,20.70
2023-01-09T16:41:46.668Z,20.70
2023-01-09T16:44:15.093Z,20.52
2023-01-09T16:46:44.663Z,20.67
2023-01-09T16:49:19.052Z,20.40
2023-01-09T16:51:47.593Z,20.23
2023-01-09T16:54:17.786Z,20.85
2023-01-09T16:56:49.526Z,22.02
2023-01-09T16:59:21.662Z,20.10
2023-01-09T17:01:49.962Z,20.55
2023-01-09T17:04:20.494Z,21.52
2023-01-09T17:06:49.876Z,21.45
2023-01-09T17:09:24.074Z,22.25
2023-01-09T17:11:53.454Z,21.60
2023-01-09T17:14:21.596Z,21.58
2023-01-09T17:16:49.940Z,21.92
2023-01-09T17:19:20.370Z,21.98
2023-01-09T17:21:48.684Z,21.23
2023-01-09T17:24:34.842Z,22.80
2023-01-09T17:27:22.303Z,22.17
2023-01-09T17:29:50.547Z,20.80
2023-01-09T17:32:19.700Z,21.70
2023-01-09T17:34:47.985Z,20.40
2023-01-09T17:37:17.569Z,21.30
2023-01-09T17:39:46.735Z,21.05
2023-01-09T17:42:16.274Z,21.23
2023-01-09T17:44:44.614Z,22.95
2023-01-09T17:47:16.202Z,21.85
2023-01-09T17:49:44.891Z,21.88
2023-01-09T17:52:13.131Z,21.30
2023-01-09T17:54:42.967Z,22.45
2023-01-09T17:57:16.265Z,21.13
2023-01-09T17:59:46.253Z,21.63
2023-01-09T18:02:18.104Z,20.83
2023-01-09T18:04:46.540Z,21.15
2023-01-09T18:07:16.156Z,21.60
2023-01-09T18:09:44.864Z,22.33
2023-01-09T18:12:13.007Z,21.48
2023-01-09T18:14:42.174Z,21.50
2023-01-09T18:17:12.995Z,21.90
2023-01-09T18:19:41.386Z,22.38
2023-01-09T18:22:09.521Z,22.15
2023-01-09T18:24:38.138Z,21.05
2023-01-09T18:27:06.271Z,21.88
2023-01-09T18:29:34.501Z,21.75
2023-01-09T18:32:02.753Z,21.80
2023-01-09T18:34:32.344Z,24.15
2023-01-09T18:37:00.549Z,23.17
2023-01-09T18:39:28.995Z,22.45
2023-01-09T18:41:57.159Z,23.02
2023-01-09T18:44:25.827Z,21.83
2023-01-09T18:46:54.641Z,21.75
2023-01-09T18:49:22.877Z,21.80
2023-01-09T18:51:52.392Z,23.63
2023-01-09T18:54:21.067Z,23.33
2023-01-09T18:56:49.240Z,22.83
2023-01-09T18:59:17.403Z,23.30
2023-01-09T19:01:45.691Z,22.60
2023-01-09T19:04:14.066Z,23.77
2023-01-09T19:06:42.249Z,23.02
2023-01-09T19:09:12.126Z,22.58
2023-01-09T19:11:40.293Z,22.48
2023-01-09T19:14:08.575Z,23.35
2023-01-09T19:16:36.805Z,23.05
2023-01-09T19:19:06.560Z,21.60
2023-01-09T19:21:34.876Z,22.45
2023-01-09T19:24:03.200Z,21.48
2023-01-09T19:26:32.676Z,21.05
2023-01-09T19:29:00.967Z,21.27
2023-01-09T19:31:29.890Z,20.88
2023-01-09T19:33:58.666Z,20.52
2023-01-09T19:36:28.470Z,20.73
2023-01-09T19:38:58.009Z,20.55
2023-01-09T19:41:26.891Z,19.17
2023-01-09T19:43:56.627Z,19.58
2023-01-09T19:46:26.058Z,19.58
2023-01-09T19:48:54.704Z,19.17
2023-01-09T19:51:24.608Z,18.98
2023-01-09T19:53:53.903Z,19.33
2023-01-09T19:56:23.958Z,20.45
2023-01-09T19:58:54.014Z,19.52
2023-01-09T20:01:25.846Z,19.95
2023-01-09T20:03:56.506Z,18.42
2023-01-09T20:06:26.553Z,18.58
2023-01-09T20:08:56.636Z,18.92
2023-01-09T20:11:27.603Z,18.85
2023-01-09T20:13:56.597Z,18.73
2023-01-09T20:16:28.333Z,19.42
2023-01-09T20:18:57.995Z,17.67
2023-01-09T20:21:28.129Z,19.58
2023-01-09T20:23:57.792Z,17.35
2023-01-09T20:26:26.069Z,17.58
2023-01-09T20:28:54.889Z,18.42
2023-01-09T20:31:28.092Z,18.10
2023-01-09T20:33:56.668Z,18.20
2023-01-09T20:36:27.621Z,19.08
2023-01-09T20:38:56.524Z,18.38
2023-01-09T20:41:25.957Z,18.42
2023-01-09T20:43:55.973Z,18.65
2023-01-09T20:46:27.497Z,19.13
2023-01-09T20:48:57.355Z,19.20
2023-01-09T20:51:25.578Z,19.17
2023-01-09T20:53:55.903Z,19.63
2023-01-09T20:56:25.103Z,18.92
2023-01-09T20:58:53.809Z,19.25
2023-01-09T21:01:23.119Z,18.48
2023-01-09T21:03:53.674Z,18.73
2023-01-09T21:06:22.960Z,20.17
2023-01-09T21:08:53.019Z,20.38
2023-01-09T21:11:22.405Z,18.42
2023-01-09T21:13:50.922Z,20.45
2023-01-09T21:16:21.785Z,19.73
2023-01-09T21:18:52.363Z,19.88
2023-01-09T21:21:23.125Z,21.30
2023-01-09T21:23:53.077Z,21.45
2023-01-09T21:26:24.535Z,21.92
2023-01-09T21:28:55.279Z,22.15
2023-01-09T21:31:26.373Z,22.13
2023-01-09T21:33:56.091Z,21.65
2023-01-09T21:36:24.568Z,22.85
2023-01-09T21:38:54.165Z,20.92
2023-01-09T21:41:45.932Z,22.23
2023-01-09T21:44:32.210Z,22.92
2023-01-09T21:47:01.190Z,22.45
2023-01-09T21:49:35.257Z,22.33
2023-01-09T21:52:04.746Z,21.80
2023-01-09T21:54:33.410Z,21.77
2023-01-09T21:57:01.877Z,22.60
2023-01-09T21:59:30.169Z,22.38
2023-01-09T22:01:58.783Z,21.80
2023-01-09T22:04:29.415Z,23.95
2023-01-09T22:06:59.012Z,24.80
2023-01-09T22:09:27.309Z,23.42
2023-01-09T22:11:55.719Z,24.75
2023-01-09T22:14:24.343Z,23.92
2023-01-09T22:16:52.549Z,26.95
2023-01-09T22:19:20.780Z,25.17
2023-01-09T22:21:50.067Z,26.38
2023-01-09T22:24:21.812Z,25.27
2023-01-09T22:26:50.075Z,25.77
2023-01-09T22:29:18.360Z,26.33
2023-01-09T22:31:46.706Z,24.70
2023-01-09T22:34:16.517Z,26.55
2023-01-09T22:36:45.609Z,25.92
2023-01-09T22:39:15.636Z,25.38
2023-01-09T22:41:45.522Z,24.90
2023-01-09T22:44:14.256Z,25.55
2023-01-09T22:46:42.565Z,23.67
2023-01-09T22:49:12.130Z,23.75
2023-01-09T22:51:40.612Z,23.45
2023-01-09T22:54:09.819Z,23.20
2023-01-09T22:56:38.083Z,24.20
2023-01-09T22:59:07.639Z,24.05
2023-01-09T23:01:36.029Z,24.40
2023-01-09T23:04:04.710Z,23.85
2023-01-09T23:06:33.067Z,22.98
2023-01-09T23:09:01.687Z,21.08
2023-01-09T23:11:49.492Z,23.73
2023-01-09T23:14:19.306Z,23.13
2023-01-09T23:16:47.518Z,22.27
2023-01-09T23:19:16.365Z,23.00
2023-01-09T23:21:45.854Z,22.88
2023-01-09T23:24:16.341Z,22.65
2023-01-09T23:26:45.237Z,23.88
2023-01-09T23:29:14.013Z,22.55
2023-01-09T23:31:43.600Z,23.52
2023-01-09T23:34:16.098Z,23.60
2023-01-09T23:36:44.726Z,23.10
2023-01-09T23:39:13.046Z,23.13
2023-01-09T23:41:59.517Z,22.88
2023-01-09T23:44:27.814Z,23.83
2023-01-09T23:46:57.338Z,24.35
2023-01-09T23:49:25.694Z,22.50
2023-01-09T23:51:53.862Z,24.25
2023-01-09T23:54:22.055Z,25.05
2023-01-09T23:56:50.242Z,24.48
2023-01-09T23:59:18.653Z,25.63
